Time;durP1;ratioP1;P1;durP2;ratioP2;P2;SDS_P1;SDS_P2;PMS_P1;PMS_P2;Temp;Humidity;BMP_temperature;BMP_pressure;BME280_temperature;BME280_humidity;BME280_pressure;Samples;Min_cycle;Max_cycle;Signal;HPM_P1;HPM_P2
2022/10/18 00:00:29;;;;;;;;;;;;;;;-144.99;100.00;52401.22;5042196;28;21009;-73
2022/10/18 00:02:55;;;;;;;;;;;;;;;-144.99;100.00;52407.31;4698390;28;9999736;-74
2022/10/18 00:05:21;;;;;;;;;;;;;;;-144.99;100.00;52399.19;5048203;28;19939;-76
2022/10/18 00:07:49;;;;;;;;;;;;;;;-144.99;100.00;52378.78;5054161;28;19936;-75
2022/10/18 00:10:15;;;;;;;;;;;;;;;-144.99;100.00;52448.09;5045793;28;19925;-75
2022/10/18 00:12:42;;;;;;;;;;;;;;;-144.99;100.00;52444.03;5047295;28;19947;-74
2022/10/18 00:15:09;;;;;;;;;;;;;;;-144.99;100.00;52391.03;5079852;22;19931;-78
2022/10/18 00:17:35;;;;;;;;;;;;;;;-144.99;100.00;52395.09;5066551;28;20443;-76
2022/10/18 00:20:01;;;;;;;;;;;;;;;-144.99;100.00;52386.94;5075054;28;20328;-75
2022/10/18 00:22:28;;;;;;;;;;;;;;;-144.99;100.00;52391.03;5066604;28;19932;-75
2022/10/18 00:24:55;;;;;;;;;;;;;;;-144.99;100.00;52399.19;5072084;28;19935;-76
2022/10/18 00:27:22;;;;;;;;;;;;;;;-144.99;100.00;52419.56;5071164;28;19925;-76
2022/10/18 00:29:52;;;;;;;;;;;;;;;-144.99;100.00;52388.97;5067988;28;19991;-76
2022/10/18 00:32:18;;;;;;;;;;;;;;;-144.99;100.00;52492.94;5065222;28;20345;-78
2022/10/18 00:34:44;;;;;;;;;;;;;;;-144.99;100.00;52399.19;5078826;28;19925;-74
2022/10/18 00:37:11;;;;;;;;;;;;;;;-144.99;100.00;52431.78;5083927;28;19947;-75
2022/10/18 00:39:37;;;;;;;;;;;;;;;-144.99;100.00;52407.31;5072163;28;19943;-75
2022/10/18 00:42:05;;;;;;;;;;;;;;;-144.99;100.00;52415.47;5073932;28;20344;-77
2022/10/18 00:44:49;;;;;;;;;;;;;;;-144.99;100.00;52386.94;5075867;28;19957;-76
2022/10/18 00:47:17;;;;;;;;;;;;;;;-144.99;100.00;52399.19;5066768;28;20035;-75
2022/10/18 00:49:45;;;;;;;;;;;;;;;-144.99;100.00;52374.72;5071945;28;20027;-76
2022/10/18 00:52:13;;;;;;;;;;;;;;;-144.99;100.00;52427.72;5083786;28;20029;-75
2022/10/18 00:54:41;;;;;;;;;;;;;;;-144.99;100.00;52419.56;5074973;28;19933;-75
2022/10/18 00:57:10;;;;;;;;;;;;;;;-144.99;100.00;52407.31;5069838;28;20391;-76
2022/10/18 00:59:37;;;;;;;;;;;;;;;-144.99;100.00;52388.97;5071432;28;20397;-75
2022/10/18 01:02:03;;;;;;;;;;;;;;;-144.99;100.00;52439.94;5075586;28;19938;-75
2022/10/18 01:04:30;;;;;;;;;;;;;;;-144.99;100.00;52382.88;5071156;28;19950;-76
2022/10/18 01:07:01;;;;;;;;;;;;;;;-144.99;100.00;52386.94;5063811;28;19959;-75
2022/10/18 01:09:30;;;;;;;;;;;;;;;-144.99;100.00;52431.78;5070765;28;20245;-75
2022/10/18 01:12:02;;;;;;;;;;;;;;;-144.99;100.00;52480.72;5072001;28;19936;-76
2022/10/18 01:14:38;;;;;;;;;;;;;;;-144.99;100.00;52431.78;5070497;28;20311;-78
2022/10/18 01:17:08;;;;;;;;;;;;;;;-144.99;100.00;52439.94;5069192;28;20400;-77
2022/10/18 01:19:53;;;;;;;;;;;;;;;-144.99;100.00;52403.25;5069021;28;19935;-73
2022/10/18 01:22:23;;;;;;;;;;;;;;;-144.99;100.00;52419.56;5073035;28;19958;-75
2022/10/18 01:24:59;;;;;;;;;;;;;;;-144.99;100.00;52423.63;5057763;28;19933;-77
2022/10/18 01:27:50;;;;;;;;;;;;;;;-144.99;100.00;52439.94;5066708;28;19935;-77
2022/10/18 01:30:39;;;;;;;;;;;;;;;-144.99;100.00;52399.19;5067626;28;20332;-76
2022/10/18 01:33:10;;;;;;;;;;;;;;;-144.99;100.00;52419.56;5066862;28;19931;-77
2022/10/18 01:35:40;;;;;;;;;;;;;;;-144.99;100.00;52448.09;5067289;28;19924;-79
2022/10/18 01:38:10;;;;;;;;;;;;;;;-144.99;100.00;52407.31;5074060;28;19965;-77
2022/10/18 01:40:38;;;;;;;;;;;;;;;-144.99;100.00;52411.41;5085856;28;19931;-78
2022/10/18 01:43:05;;;;;;;;;;;;;;;-144.99;100.00;52391.03;5076844;28;19928;-77
2022/10/18 01:45:32;;;;;;;;;;;;;;;-144.99;100.00;52419.56;5077331;28;20298;-78
2022/10/18 01:48:00;;;;;;;;;;;;;;;-144.99;100.00;52448.09;5071848;28;19939;-76
2022/10/18 01:50:30;;;;;;;;;;;;;;;-144.99;100.00;52431.78;5070887;28;19924;-77
2022/10/18 01:52:57;;;;;;;;;;;;;;;-144.99;100.00;52452.16;5084099;28;19962;-77
2022/10/18 01:55:26;;;;;;;;;;;;;;;-144.99;100.00;52403.25;5081474;28;19950;-78
2022/10/18 01:58:03;;;;;;;;;;;;;;;-144.99;100.00;52427.72;5079368;28;19931;-77
2022/10/18 02:00:32;;;;;;;;;;;;;;;-144.99;100.00;52431.78;5072628;28;19924;-77
2022/10/18 02:03:04;;;;;;;;;;;;;;;-144.99;100.00;52439.94;5075832;28;19935;-77
2022/10/18 02:05:32;;;;;;;;;;;;;;;-144.99;100.00;52444.03;5071166;28;19955;-77
2022/10/18 02:08:04;;;;;;;;;;;;;;;-144.99;100.00;52378.78;5069884;28;19932;-77
2022/10/18 02:10:33;;;;;;;;;;;;;;;-144.99;100.00;52411.41;5076177;28;19928;-76
2022/10/18 02:13:00;;;;;;;;;;;;;;;-144.99;100.00;52415.47;5073514;28;19924;-76
2022/10/18 02:15:30;;;;;;;;;;;;;;;-144.99;100.00;52435.88;5054203;28;19925;-76
2022/10/18 02:17:57;;;;;;;;;;;;;;;-144.99;100.00;52415.47;5068574;28;20308;-76
2022/10/18 02:20:25;;;;;;;;;;;;;;;-144.99;100.00;52419.56;5080647;28;20018;-76
2022/10/18 02:22:54;;;;;;;;;;;;;;;-144.99;100.00;52435.88;5071770;28;19924;-78
2022/10/18 02:25:25;;;;;;;;;;;;;;;-144.99;100.00;52415.47;5074650;28;19928;-78
2022/10/18 02:27:51;;;;;;;;;;;;;;;-144.99;100.00;52427.72;5069583;28;19928;-75
2022/10/18 02:30:18;;;;;;;;;;;;;;;-144.99;100.00;52407.31;5069512;28;19931;-76
2022/10/18 02:32:48;;;;;;;;;;;;;;;-144.99;100.00;52452.16;5070458;28;19939;-76
2022/10/18 02:35:19;;;;;;;;;;;;;;;-144.99;100.00;52448.09;5064639;28;20135;-76
2022/10/18 02:37:48;;;;;;;;;;;;;;;-144.99;100.00;52419.56;5073450;28;19932;-76
2022/10/18 02:40:15;;;;;;;;;;;;;;;-144.99;100.00;52439.94;5064934;28;19936;-77
2022/10/18 02:42:44;;;;;;;;;;;;;;;-144.99;100.00;52423.63;5071321;28;20340;-75
2022/10/18 02:45:10;;;;;;;;;;;;;;;-144.99;100.00;52423.63;5068790;28;20287;-75
2022/10/18 02:47:37;;;;;;;;;;;;;;;-144.99;100.00;52415.47;5069745;28;19931;-75
2022/10/18 02:50:03;;;;;;;;;;;;;;;-144.99;100.00;52419.56;5078282;28;20267;-75
2022/10/18 02:52:30;;;;;;;;;;;;;;;-144.99;100.00;52433.81;5073460;28;19928;-74
2022/10/18 02:54:57;;;;;;;;;;;;;;;-144.99;100.00;52411.41;5069757;28;19932;-75
2022/10/18 02:57:24;;;;;;;;;;;;;;;-144.99;100.00;52444.03;5070879;28;19924;-75
2022/10/18 02:59:50;;;;;;;;;;;;;;;-144.99;100.00;52431.78;5070838;28;19940;-75
2022/10/18 03:02:16;;;;;;;;;;;;;;;-144.99;100.00;52444.03;5070161;28;19929;-76
2022/10/18 03:04:43;;;;;;;;;;;;;;;-144.99;100.00;52419.56;5080967;28;19924;-74
2022/10/18 03:07:09;;;;;;;;;;;;;;;-144.99;100.00;52441.97;5068650;28;19965;-77
2022/10/18 03:09:35;;;;;;;;;;;;;;;-144.99;100.00;52433.81;5072267;28;19928;-76
2022/10/18 03:12:03;;;;;;;;;;;;;;;-144.99;100.00;52407.31;5065449;28;20281;-75
2022/10/18 03:14:29;;;;;;;;;;;;;;;-144.99;100.00;52417.53;5073852;28;20319;-78
2022/10/18 03:16:56;;;;;;;;;;;;;;;-144.99;100.00;52460.31;5068108;28;19924;-78
2022/10/18 03:19:22;;;;;;;;;;;;;;;-144.99;100.00;52444.03;5070877;28;19943;-78
2022/10/18 03:21:49;;;;;;;;;;;;;;;-144.99;100.00;52401.22;5073300;28;19924;-78
2022/10/18 03:24:15;;;;;;;;;;;;;;;-144.99;100.00;52441.97;5079301;28;20011;-78
2022/10/18 03:26:41;;;;;;;;;;;;;;;-144.99;100.00;52431.78;5080309;28;19965;-80
2022/10/18 03:29:10;;;;;;;;;;;;;;;-144.99;100.00;52427.72;5092792;28;19928;-78
2022/10/18 03:31:36;;;;;;;;;;;;;;;-144.99;100.00;52415.47;5066983;28;20051;-77
2022/10/18 03:34:03;;;;;;;;;;;;;;;-144.99;100.00;52435.88;5071278;28;19924;-77
2022/10/18 03:36:29;;;;;;;;;;;;;;;-144.99;100.00;52448.09;5072123;28;19931;-77
2022/10/18 03:38:55;;;;;;;;;;;;;;;-144.99;100.00;52423.63;5064309;28;19929;-77
2022/10/18 03:41:22;;;;;;;;;;;;;;;-144.99;100.00;52415.47;5074958;28;20387;-75
2022/10/18 03:43:48;;;;;;;;;;;;;;;-144.99;100.00;52417.53;5074857;28;19924;-77
2022/10/18 03:46:16;;;;;;;;;;;;;;;-144.99;100.00;52397.13;5070328;28;19928;-77
2022/10/18 03:48:42;;;;;;;;;;;;;;;-144.99;100.00;52456.25;5076647;28;19935;-77
2022/10/18 03:51:08;;;;;;;;;;;;;;;-144.99;100.00;52454.22;5083319;28;19953;-77
2022/10/18 03:53:35;;;;;;;;;;;;;;;-144.99;100.00;52427.72;5081669;28;19928;-77
2022/10/18 03:56:01;;;;;;;;;;;;;;;-144.99;100.00;52435.88;5073845;28;19940;-77
2022/10/18 03:58:28;;;;;;;;;;;;;;;-144.99;100.00;52439.94;5071234;28;20396;-77
2022/10/18 04:00:54;;;;;;;;;;;;;;;-144.99;100.00;52444.03;5075243;28;19932;-77
2022/10/18 04:03:23;;;;;;;;;;;;;;;-144.99;100.00;52391.03;5077648;28;19955;-77
2022/10/18 04:05:50;;;;;;;;;;;;;;;-144.99;100.00;52433.81;5067943;28;19935;-76
2022/10/18 04:08:16;;;;;;;;;;;;;;;-144.99;100.00;52431.78;5077069;28;20386;-77
2022/10/18 04:10:43;;;;;;;;;;;;;;;-144.99;100.00;52444.03;5075122;28;19924;-77
2022/10/18 04:13:09;;;;;;;;;;;;;;;-144.99;100.00;52460.31;5074709;28;19932;-77
2022/10/18 04:15:35;;;;;;;;;;;;;;;-144.99;100.00;52403.25;5077300;28;19924;-76
2022/10/18 04:18:02;;;;;;;;;;;;;;;-144.99;100.00;52484.78;5080457;28;19943;-74
2022/10/18 04:20:29;;;;;;;;;;;;;;;-144.99;100.00;52431.78;5071981;28;20512;-76
2022/10/18 04:22:56;;;;;;;;;;;;;;;-144.99;100.00;52439.94;5070370;28;20053;-76
2022/10/18 04:25:23;;;;;;;;;;;;;;;-144.99;100.00;52448.09;5080751;28;19925;-77
2022/10/18 04:27:49;;;;;;;;;;;;;;;-144.99;100.00;52468.47;5069846;28;19935;-77
2022/10/18 04:30:15;;;;;;;;;;;;;;;-144.99;100.00;52437.91;5062209;28;19925;-76
2022/10/18 04:32:42;;;;;;;;;;;;;;;-144.99;100.00;52423.63;5077544;28;19924;-76
2022/10/18 04:35:09;;;;;;;;;;;;;;;-144.99;100.00;52464.41;5067189;28;19959;-77
2022/10/18 04:37:37;;;;;;;;;;;;;;;-144.99;100.00;52427.72;5082041;28;19929;-76
2022/10/18 04:40:04;;;;;;;;;;;;;;;-144.99;100.00;52437.91;5076966;28;20384;-77
2022/10/18 04:42:30;;;;;;;;;;;;;;;-144.99;100.00;52429.75;5079474;28;19935;-76
2022/10/18 04:44:56;;;;;;;;;;;;;;;-144.99;100.00;52427.72;5080582;28;19935;-77
2022/10/18 04:47:23;;;;;;;;;;;;;;;-144.99;100.00;52415.47;5077997;28;19936;-76
2022/10/18 04:49:49;;;;;;;;;;;;;;;-144.99;100.00;52427.72;5079759;28;19925;-77
2022/10/18 04:52:15;;;;;;;;;;;;;;;-144.99;100.00;52407.31;5079952;28;20034;-77
2022/10/18 04:54:43;;;;;;;;;;;;;;;-144.99;100.00;52444.03;5077198;28;19924;-77
2022/10/18 04:57:09;;;;;;;;;;;;;;;-144.99;100.00;52415.47;5078614;28;19950;-76
2022/10/18 04:59:36;;;;;;;;;;;;;;;-144.99;100.00;52395.09;5067383;28;19947;-76
2022/10/18 05:02:03;;;;;;;;;;;;;;;-144.99;100.00;52435.88;5077039;28;20175;-73
2022/10/18 05:04:29;;;;;;;;;;;;;;;-144.99;100.00;52460.31;5069197;28;21305;-75
2022/10/18 05:06:56;;;;;;;;;;;;;;;-144.99;100.00;52448.09;5071769;28;20426;-75
2022/10/18 05:09:23;;;;;;;;;;;;;;;-144.99;100.00;52474.59;5073974;28;20000;-75
2022/10/18 05:11:51;;;;;;;;;;;;;;;-144.99;100.00;52415.47;5076019;28;20011;-75
2022/10/18 05:14:17;;;;;;;;;;;;;;;-144.99;100.00;52419.56;5072043;28;19931;-76
2022/10/18 05:16:44;;;;;;;;;;;;;;;-144.99;100.00;52419.56;5080389;28;20409;-78
2022/10/18 05:19:10;;;;;;;;;;;;;;;-144.99;100.00;52407.31;5071837;28;20003;-79
2022/10/18 05:21:36;;;;;;;;;;;;;;;-144.99;100.00;52409.38;4364505;28;10000656;-79
2022/10/18 05:24:03;;;;;;;;;;;;;;;-144.99;100.00;52395.09;5067495;28;20376;-78
2022/10/18 05:26:29;;;;;;;;;;;;;;;-144.99;100.00;52413.44;5071011;28;19928;-79
2022/10/18 05:28:57;;;;;;;;;;;;;;;-144.99;100.00;52427.72;5073616;28;19940;-79
2022/10/18 05:31:23;;;;;;;;;;;;;;;-144.99;100.00;52423.63;5077783;28;19939;-79
2022/10/18 05:33:50;;;;;;;;;;;;;;;-144.99;100.00;52441.97;5060336;28;20544;-76
2022/10/18 05:36:16;;;;;;;;;;;;;;;-144.99;100.00;52435.88;5063714;28;19932;-75
2022/10/18 05:38:44;;;;;;;;;;;;;;;-144.99;100.00;52407.31;5070280;28;19935;-77
2022/10/18 05:41:10;;;;;;;;;;;;;;;-144.99;100.00;52456.25;5073277;28;19932;-78
2022/10/18 05:43:37;;;;;;;;;;;;;;;-144.99;100.00;52452.16;5070660;28;19951;-78
2022/10/18 05:46:06;;;;;;;;;;;;;;;-144.99;100.00;52415.47;5077766;28;20383;-76
2022/10/18 05:48:32;;;;;;;;;;;;;;;-144.99;100.00;52403.25;5066471;28;19929;-76
2022/10/18 05:50:59;;;;;;;;;;;;;;;-144.99;100.00;52444.03;5063340;28;19928;-76
2022/10/18 05:53:26;;;;;;;;;;;;;;;-144.99;100.00;52472.56;5056342;28;20391;-77
2022/10/18 05:55:52;;;;;;;;;;;;;;;-144.99;100.00;52448.09;5076611;28;20374;-77
2022/10/18 05:58:18;;;;;;;;;;;;;;;-144.99;100.00;52419.56;5067798;28;20303;-76
2022/10/18 06:00:45;;;;;;;;;;;;;;;-144.99;100.00;52431.78;5068246;28;20422;-76
2022/10/18 06:03:12;;;;;;;;;;;;;;;-144.99;100.00;52439.94;5066711;28;19929;-74
2022/10/18 06:05:39;;;;;;;;;;;;;;;-144.99;100.00;52435.88;5069927;28;19924;-78
2022/10/18 06:08:05;;;;;;;;;;;;;;;-144.99;100.00;52476.63;5072221;28;19931;-78
2022/10/18 06:10:31;;;;;;;;;;;;;;;-144.99;100.00;52386.94;5066489;28;19932;-79
2022/10/18 06:12:59;;;;;;;;;;;;;;;-144.99;100.00;52423.63;5066283;28;19936;-78
2022/10/18 06:15:25;;;;;;;;;;;;;;;-144.99;100.00;52423.63;5070896;28;19965;-79
2022/10/18 06:17:51;;;;;;;;;;;;;;;-144.99;100.00;52411.41;5080017;28;19938;-79
2022/10/18 06:20:19;;;;;;;;;;;;;;;-144.99;100.00;52452.16;5085008;28;20353;-78
2022/10/18 06:22:46;;;;;;;;;;;;;;;-144.99;100.00;52427.72;5066385;28;19943;-78
2022/10/18 06:25:12;;;;;;;;;;;;;;;-144.99;100.00;52450.13;5067698;28;20396;-78
2022/10/18 06:27:39;;;;;;;;;;;;;;;-144.99;100.00;52423.63;5074619;28;19999;-79
2022/10/18 06:30:05;;;;;;;;;;;;;;;-144.99;100.00;52391.03;5063778;28;20303;-78
2022/10/18 06:32:32;;;;;;;;;;;;;;;-144.99;100.00;52409.38;5064862;28;19924;-78
2022/10/18 06:34:58;;;;;;;;;;;;;;;-144.99;100.00;52423.63;5065816;28;20135;-79
2022/10/18 06:40:05;;;;;;;;;;;;;;;-144.99;100.00;52448.09;4642968;28;10000022;-74
2022/10/18 06:42:31;;;;;;;;;;;;;;;-144.99;100.00;52448.09;4996101;28;19970;-73
2022/10/18 06:44:59;;;;;;;;;;;;;;;-144.99;100.00;52452.16;5002120;28;20001;-74
2022/10/18 06:47:25;;;;;;;;;;;;;;;-144.99;100.00;52444.03;4993600;28;19964;-74
2022/10/18 06:49:52;;;;;;;;;;;;;;;-144.99;100.00;52399.19;5005050;28;20024;-74
2022/10/18 06:52:19;;;;;;;;;;;;;;;-144.99;100.00;52456.25;4991503;28;19933;-74
2022/10/18 06:54:45;;;;;;;;;;;;;;;-144.99;100.00;52395.09;4989669;28;20025;-74
2022/10/18 06:57:13;;;;;;;;;;;;;;;-144.99;100.00;52439.94;4987249;28;19940;-74
2022/10/18 06:59:39;;;;;;;;;;;;;;;-144.99;100.00;52456.25;4999097;28;20423;-72
2022/10/18 07:02:06;;;;;;;;;;;;;;;-144.99;100.00;52403.25;4993332;28;19926;-74
2022/10/18 07:04:32;;;;;;;;;;;;;;;-144.99;100.00;52456.25;4989694;28;20544;-72
2022/10/18 07:06:59;;;;;;;;;;;;;;;-144.99;100.00;52423.63;4993221;28;19985;-73
2022/10/18 07:09:25;;;;;;;;;;;;;;;-144.99;100.00;52415.47;4992929;28;19930;-73
2022/10/18 07:11:52;;;;;;;;;;;;;;;-144.99;100.00;52439.94;4990883;28;19940;-74
2022/10/18 07:14:19;;;;;;;;;;;;;;;-144.99;100.00;52444.03;4988371;28;19929;-73
2022/10/18 07:16:46;;;;;;;;;;;;;;;-144.99;100.00;52444.03;4993827;28;19937;-72
2022/10/18 07:19:13;;;;;;;;;;;;;;;-144.99;100.00;52411.41;4999582;28;19948;-73
2022/10/18 07:21:40;;;;;;;;;;;;;;;-144.99;100.00;52427.72;5006902;28;19914;-80
2022/10/18 07:24:06;;;;;;;;;;;;;;;-144.99;100.00;52441.97;5021352;28;19914;-77
2022/10/18 07:26:34;;;;;;;;;;;;;;;-144.99;100.00;52480.72;5006986;28;19937;-79
2022/10/18 07:29:01;;;;;;;;;;;;;;;-144.99;100.00;52435.88;5025711;28;19920;-77
2022/10/18 07:31:29;;;;;;;;;;;;;;;-144.99;100.00;52429.75;5005016;28;19922;-79
2022/10/18 07:33:55;;;;;;;;;;;;;;;-144.99;100.00;52456.25;5018604;28;19969;-76
2022/10/18 07:36:22;;;;;;;;;;;;;;;-144.99;100.00;52427.72;5020354;28;19941;-77
2022/10/18 07:38:48;;;;;;;;;;;;;;;-144.99;100.00;52435.88;5025360;28;20219;-76
2022/10/18 07:41:14;;;;;;;;;;;;;;;-144.99;100.00;52452.16;5014598;28;20399;-74
2022/10/18 07:43:41;;;;;;;;;;;;;;;-144.99;100.00;52446.06;5004386;28;20369;-74
2022/10/18 07:46:08;;;;;;;;;;;;;;;-144.99;100.00;52391.03;5012302;28;19990;-76
2022/10/18 07:48:36;;;;;;;;;;;;;;;-144.99;100.00;52439.94;5009026;28;19990;-74
2022/10/18 07:51:02;;;;;;;;;;;;;;;-144.99;100.00;52366.56;5009813;28;19926;-75
2022/10/18 07:53:29;;;;;;;;;;;;;;;-144.99;100.00;52425.66;5002613;28;20185;-76
2022/10/18 07:55:57;;;;;;;;;;;;;;;-144.99;100.00;52415.47;4999511;28;19938;-74
2022/10/18 07:58:23;;;;;;;;;;;;;;;-144.99;100.00;52407.31;4992242;28;19929;-75
2022/10/18 08:00:49;;;;;;;;;;;;;;;-144.99;100.00;52378.78;5027648;28;19954;-76
2022/10/18 08:03:16;;;;;;;;;;;;;;;-144.99;100.00;52419.56;5026950;28;19956;-76
2022/10/18 08:05:45;;;;;;;;;;;;;;;-144.99;100.00;52435.88;5018013;28;19986;-75
2022/10/18 08:08:12;;;;;;;;;;;;;;;-144.99;100.00;52417.53;5022428;28;19941;-75
2022/10/18 08:10:41;;;;;;;;;;;;;;;-144.99;100.00;52388.97;5028318;28;19949;-76
2022/10/18 08:13:07;;;;;;;;;;;;;;;-144.99;100.00;52411.41;5024401;28;19969;-77
2022/10/18 08:15:33;;;;;;;;;;;;;;;-144.99;100.00;52419.56;5020894;28;19992;-75
2022/10/18 08:18:00;;;;;;;;;;;;;;;-144.99;100.00;52391.03;5014748;28;19921;-75
2022/10/18 08:20:26;;;;;;;;;;;;;;;-144.99;100.00;52395.09;5025063;28;20029;-76
2022/10/18 08:22:54;;;;;;;;;;;;;;;-144.99;100.00;52446.06;5028317;28;20056;-76
2022/10/18 08:25:20;;;;;;;;;;;;;;;-144.99;100.00;52444.03;5013013;28;19927;-74
2022/10/18 08:27:46;;;;;;;;;;;;;;;-144.99;100.00;52444.03;5007507;28;20336;-74
2022/10/18 08:30:13;;;;;;;;;;;;;;;-144.99;100.00;52435.88;4984865;28;19926;-72
2022/10/18 08:32:39;;;;;;;;;;;;;;;-144.99;100.00;52435.88;4998939;28;19961;-73
2022/10/18 08:35:06;;;;;;;;;;;;;;;-144.99;100.00;52435.88;4998199;28;19929;-74
2022/10/18 08:37:32;;;;;;;;;;;;;;;-144.99;100.00;52399.19;4996504;28;19926;-74
2022/10/18 08:40:00;;;;;;;;;;;;;;;-144.99;100.00;52411.41;4986873;28;19964;-73
2022/10/18 08:42:35;;;;;;;;;;;;;;;-144.99;100.00;52419.56;5006233;28;19940;-75
2022/10/18 08:45:04;;;;;;;;;;;;;;;-144.99;100.00;52407.31;4996719;28;19926;-74
2022/10/18 08:47:33;;;;;;;;;;;;;;;-144.99;100.00;52464.41;5002646;28;19929;-74
2022/10/18 08:50:01;;;;;;;;;;;;;;;-144.99;100.00;52468.47;4990815;28;19930;-74
2022/10/18 08:52:31;;;;;;;;;;;;;;;-144.99;100.00;52464.41;4996670;28;19961;-74
2022/10/18 08:55:00;;;;;;;;;;;;;;;-144.99;100.00;52425.66;5006112;28;20044;-74
2022/10/18 08:57:28;;;;;;;;;;;;;;;-144.99;100.00;52415.47;5011611;28;20302;-75
2022/10/18 08:59:55;;;;;;;;;;;;;;;-144.99;100.00;52444.03;5014669;28;19929;-75
2022/10/18 09:02:29;;;;;;;;;;;;;;;-144.99;100.00;52474.59;5009175;28;20028;-75
2022/10/18 09:05:00;;;;;;;;;;;;;;;-144.99;100.00;52403.25;4997418;28;19937;-75
2022/10/18 09:07:38;;;;;;;;;;;;;;;-144.99;100.00;52395.09;4996724;28;19926;-74
2022/10/18 09:10:08;;;;;;;;;;;;;;;-144.99;100.00;52448.09;4994040;28;19942;-74
2022/10/18 09:12:49;;;;;;;;;;;;;;;-144.99;100.00;52444.03;4999117;28;19925;-72
2022/10/18 09:15:19;;;;;;;;;;;;;;;-144.99;100.00;52415.47;4990354;28;19934;-73
2022/10/18 09:17:51;;;;;;;;;;;;;;;-144.99;100.00;52435.88;4987463;28;19941;-75
2022/10/18 09:20:21;;;;;;;;;;;;;;;-144.99;100.00;52366.56;4991543;28;20430;-73
2022/10/18 09:22:52;;;;;;;;;;;;;;;-144.99;100.00;52407.31;5004637;28;19930;-75
2022/10/18 09:25:20;;;;;;;;;;;;;;;-144.99;99.62;52382.88;4997632;28;19941;-73
2022/10/18 09:27:51;;;;;;;;;;;;;;;-144.99;98.77;52419.56;4997651;28;19974;-74
2022/10/18 09:30:22;;;;;;;;;;;;;;;-144.99;99.45;52397.13;4990443;28;19929;-77
2022/10/18 09:32:51;;;;;;;;;;;;;;;-144.99;98.21;52431.78;4992129;28;20389;-73
2022/10/18 09:35:19;;;;;;;;;;;;;;;-144.99;100.00;52419.56;4984048;28;20649;-72
2022/10/18 09:37:47;;;;;;;;;;;;;;;-144.99;99.64;52399.19;4993941;28;20427;-73
2022/10/18 09:40:15;;;;;;;;;;;;;;;-144.99;97.71;52403.25;4993126;28;19929;-72
2022/10/18 09:42:45;;;;;;;;;;;;;;;-144.99;98.04;52427.72;5000857;28;19936;-73
2022/10/18 09:45:21;;;;;;;;;;;;;;;-144.99;97.01;52378.78;4998699;28;20389;-73
2022/10/18 09:47:54;;;;;;;;;;;;;;;-144.99;94.57;52350.25;4997794;28;20024;-74
2022/10/18 09:50:24;;;;;;;;;;;;;;;-144.99;89.90;52393.06;4997715;28;20278;-74
2022/10/18 09:52:53;;;;;;;;;;;;;;;-144.99;88.14;52338.03;4990652;28;19929;-74
2022/10/18 09:55:22;;;;;;;;;;;;;;;-144.99;87.16;52352.28;5005362;28;19933;-74
2022/10/18 09:57:50;;;;;;;;;;;;;;;-144.99;81.30;52270.78;5000393;28;19978;-75
2022/10/18 10:00:22;;;;;;;;;;;;;;;-144.99;71.92;52305.41;4999034;28;20037;-74
2022/10/18 10:02:49;;;;;;;;;;;;;;;-144.99;67.63;52232.03;4996872;28;20332;-74
2022/10/18 10:05:15;;;;;;;;;;;;;;;-144.99;62.81;52244.28;4997180;28;19930;-75
2022/10/18 10:07:42;;;;;;;;;;;;;;;-144.99;62.98;52227.97;4988013;28;19925;-74
2022/10/18 10:10:13;;;;;;;;;;;;;;;-144.99;61.33;52297.25;4994189;28;20020;-73
2022/10/18 10:12:40;;;;;;;;;;;;;;;-144.99;63.65;52358.41;4991853;28;20365;-73
2022/10/18 10:15:09;;;;;;;;;;;;;;;-144.99;66.63;52278.91;4991665;28;19931;-74
2022/10/18 10:17:37;;;;;;;;;;;;;;;-144.99;68.96;52366.56;4989320;28;19941;-75
2022/10/18 10:20:04;;;;;;;;;;;;;;;-144.99;71.10;52350.25;4998817;28;19968;-79
2022/10/18 10:22:35;;;;;;;;;;;;;;;-144.99;73.62;52346.19;4988625;28;19926;-73
2022/10/18 10:25:01;;;;;;;;;;;;;;;-144.99;75.04;52256.50;5000245;28;19929;-76
2022/10/18 10:27:29;;;;;;;;;;;;;;;-144.99;70.90;52323.75;4995226;28;19929;-73
2022/10/18 10:29:57;;;;;;;;;;;;;;;-144.99;68.41;52309.50;4993709;28;20014;-75
2022/10/18 10:32:25;;;;;;;;;;;;;;;-144.99;61.97;52179.06;4992882;28;19926;-74
2022/10/18 10:34:53;;;;;;;;;;;;;;;-144.99;58.21;52183.13;5000304;28;19940;-75
2022/10/18 10:37:27;;;;;;;;;;;;;;;-144.99;55.50;52146.44;4997732;28;20408;-75
2022/10/18 10:40:09;;;;;;;;;;;;;;;-144.99;52.89;52138.28;4988206;28;19925;-75
2022/10/18 10:42:37;;;;;;;;;;;;;;;-144.99;51.35;52136.25;4994560;28;19930;-73
2022/10/18 10:45:04;;;;;;;;;;;;;;;-144.99;49.27;52236.13;4987399;28;20124;-74
2022/10/18 10:47:33;;;;;;;;;;;;;;;-144.99;47.36;52154.59;4992564;28;20296;-74
2022/10/18 10:50:09;;;;;;;;;;;;;;;-144.99;46.80;52236.13;4987923;28;19937;-73
2022/10/18 10:52:37;;;;;;;;;;;;;;;-144.99;48.13;52134.22;4976125;28;19930;-73
2022/10/18 10:55:04;;;;;;;;;;;;;;;-144.99;48.23;52121.97;4993639;28;19939;-74
2022/10/18 10:57:31;;;;;;;;;;;;;;;-144.99;46.19;52089.38;4996766;28;19992;-75
2022/10/18 10:59:59;;;;;;;;;;;;;;;-144.99;45.72;52174.97;4988177;28;19929;-74
2022/10/18 11:02:29;;;;;;;;;;;;;;;-144.99;44.75;52081.22;4995356;28;20005;-74
2022/10/18 11:04:56;;;;;;;;;;;;;;;-144.99;43.49;52064.91;4984714;28;20587;-74
2022/10/18 11:07:27;;;;;;;;;;;;;;;-144.99;42.19;52248.34;4989755;28;19930;-77
2022/10/18 11:09:58;;;;;;;;;;;;;;;-144.99;44.06;52285.03;4991620;28;20333;-76
2022/10/18 11:12:28;;;;;;;;;;;;;;;-144.99;45.55;52309.50;4981298;28;20321;-73
2022/10/18 11:14:59;;;;;;;;;;;;;;;-144.99;46.72;52285.03;4987286;28;19989;-75
2022/10/18 11:17:29;;;;;;;;;;;;;;;-144.99;47.00;52313.56;5002433;28;20377;-73
2022/10/18 11:20:00;;;;;;;;;;;;;;;-144.99;47.48;52329.88;4990800;28;19930;-76
2022/10/18 11:22:32;;;;;;;;;;;;;;;-144.99;47.70;52297.25;4988674;28;20309;-74
2022/10/18 11:24:58;;;;;;;;;;;;;;;-144.99;45.79;52150.53;4978309;28;19937;-74
2022/10/18 11:27:27;;;;;;;;;;;;;;;-144.99;44.19;52162.75;4999757;28;19930;-74
2022/10/18 11:29:58;;;;;;;;;;;;;;;-144.99;43.08;52121.97;5002274;28;19940;-75
2022/10/18 11:32:30;;;;;;;;;;;;;;;-144.99;42.32;52105.69;5019161;28;19926;-74
2022/10/18 11:35:02;;;;;;;;;;;;;;;-144.99;41.47;52099.56;4997243;28;20168;-74
2022/10/18 11:37:35;;;;;;;;;;;;;;;-144.99;39.86;52060.84;4980584;28;19926;-74
2022/10/18 11:40:09;;;;;;;;;;;;;;;-144.99;39.63;52069.00;4994203;28;20388;-75
2022/10/18 11:42:41;;;;;;;;;;;;;;;-144.99;39.27;52062.88;4989188;28;19929;-76
2022/10/18 11:45:17;;;;;;;;;;;;;;;-144.99;38.56;51979.31;4989617;28;20630;-75
2022/10/18 11:47:47;;;;;;;;;;;;;;;-144.99;36.48;52003.78;4995128;28;20292;-75
2022/10/18 11:50:24;;;;;;;;;;;;;;;-144.99;35.64;51999.69;4988111;28;19929;-74
2022/10/18 11:52:55;;;;;;;;;;;;;;;-144.99;34.35;51983.41;4990404;28;20413;-76
2022/10/18 11:55:40;;;;;;;;;;;;;;;-144.99;33.84;51969.13;4988124;28;19926;-75
2022/10/18 11:58:14;;;;;;;;;;;;;;;-144.99;33.15;51950.78;4998385;28;20288;-76
2022/10/18 12:00:47;;;;;;;;;;;;;;;-144.99;33.03;51987.47;4996978;28;19930;-75
2022/10/18 12:03:20;;;;;;;;;;;;;;;-144.99;34.80;52207.59;4991058;28;19933;-75
2022/10/18 12:05:48;;;;;;;;;;;;;;;-144.99;35.35;52109.75;4983068;28;19926;-73
2022/10/18 12:08:18;;;;;;;;;;;;;;;-144.99;36.40;52097.53;4996281;28;20317;-74
2022/10/18 12:10:48;;;;;;;;;;;;;;;-144.99;36.13;52079.19;5004585;28;19930;-74
2022/10/18 12:13:17;;;;;;;;;;;;;;;-144.99;35.14;52060.84;4991843;28;20501;-74
2022/10/18 12:15:43;;;;;;;;;;;;;;;-144.99;34.33;51979.31;4991773;28;19929;-73
2022/10/18 12:18:12;;;;;;;;;;;;;;;-144.99;33.84;52150.53;4985267;28;19933;-74
2022/10/18 12:20:41;;;;;;;;;;;;;;;-144.99;34.93;52060.84;5005339;28;19929;-74
2022/10/18 12:23:11;;;;;;;;;;;;;;;-144.99;35.17;52260.56;4998037;28;19937;-74
2022/10/18 12:25:41;;;;;;;;;;;;;;;-144.99;35.70;52248.34;4992371;28;20149;-74